EmailTwitter


Observations de surface / France / LFMK (07635)

Régions: Québec | Canada | États-Unis | Europe | France | UK | Ailleurs
Station
Affichage
Infos & localisation pour LFMK (07635) | Aide pour décoder les METARs

Observations prises le 2021-03-05 à 04H30 UTC à CARCASSONNE/SALV, FR (LFMK)

Température: 6.0 Celsius

Point de rosée: 5.0 Celsius

Humidité relative: 93%

Vents: Sud-sud-est à 4 km/h ou 2 noeuds.

Pression au niveau moyen de la mer: 101.80 kilopascals.

Observation METAR:

LFMK 050430Z AUTO 16002KT 4600 BR FEW006 OVC058 06/05 Q1018 TEMPO 0500 FG VV///=